createdAt,value
2023-04-29T00:01:17.929Z,9.33
2023-04-29T00:03:51.054Z,9.32
2023-04-29T00:06:18.420Z,9.33
2023-04-29T00:08:51.982Z,9.36
2023-04-29T00:11:19.021Z,9.33
2023-04-29T00:13:45.777Z,9.33
2023-04-29T00:16:18.961Z,9.26
2023-04-29T00:18:58.954Z,9.23
2023-04-29T00:21:40.019Z,9.32
2023-04-29T00:24:14.024Z,9.25
2023-04-29T00:26:41.870Z,9.32
2023-04-29T00:29:15.367Z,9.31
2023-04-29T00:31:52.006Z,9.21
2023-04-29T00:34:19.049Z,9.28
2023-04-29T00:36:53.052Z,9.25
2023-04-29T00:39:19.971Z,9.28
2023-04-29T00:41:52.979Z,9.32
2023-04-29T00:44:20.002Z,9.20
2023-04-29T00:46:52.982Z,9.34
2023-04-29T00:49:20.123Z,9.29
2023-04-29T00:51:47.575Z,9.25
2023-04-29T00:54:20.987Z,9.28
2023-04-29T00:56:48.154Z,9.22
2023-04-29T00:59:23.949Z,9.22
2023-04-29T01:01:51.652Z,9.34
2023-04-29T01:04:24.993Z,9.29
2023-04-29T01:07:16.047Z,9.35
2023-04-29T01:10:14.116Z,9.32
2023-04-29T01:12:55.003Z,9.33
2023-04-29T01:15:40.073Z,9.26
2023-04-29T01:18:34.034Z,9.34
2023-04-29T01:21:07.053Z,9.28
2023-04-29T01:23:33.900Z,9.28
2023-04-29T01:26:06.968Z,9.32
2023-04-29T01:28:43.359Z,9.32
2023-04-29T01:31:43.024Z,9.26
2023-04-29T01:34:12.281Z,9.16
2023-04-29T01:36:55.037Z,9.31
2023-04-29T01:39:38.004Z,9.18
2023-04-29T01:42:34.989Z,9.27
2023-04-29T01:45:06.913Z,9.33
2023-04-29T01:47:48.428Z,9.27
2023-04-29T01:50:26.159Z,9.29
2023-04-29T01:52:59.046Z,9.29
2023-04-29T01:55:28.110Z,9.26
2023-04-29T01:58:01.065Z,9.28
2023-04-29T02:00:28.059Z,9.19
2023-04-29T02:03:02.062Z,9.26
2023-04-29T02:05:35.153Z,9.08
2023-04-29T02:08:09.028Z,9.26
2023-04-29T02:10:42.041Z,9.24
2023-04-29T02:13:08.985Z,9.18
2023-04-29T02:15:42.022Z,9.22
2023-04-29T02:18:08.800Z,9.14
2023-04-29T02:20:42.049Z,9.10
2023-04-29T02:23:09.279Z,9.10
2023-04-29T02:25:43.074Z,9.17
2023-04-29T02:28:10.116Z,9.14
2023-04-29T02:30:43.039Z,9.08
2023-04-29T02:33:09.922Z,9.13
2023-04-29T02:35:48.061Z,9.05
2023-04-29T02:38:14.901Z,9.01
2023-04-29T02:40:50.197Z,9.03
2023-04-29T02:43:24.146Z,9.09
2023-04-29T02:45:57.138Z,9.03
2023-04-29T02:48:24.397Z,8.95
2023-04-29T02:50:58.075Z,8.97
2023-04-29T02:53:24.908Z,9.03
2023-04-29T02:55:58.953Z,9.02
2023-04-29T02:58:32.066Z,8.89
2023-04-29T03:00:58.936Z,8.85
2023-04-29T03:03:32.279Z,8.98
2023-04-29T03:05:59.217Z,8.97
2023-04-29T03:08:31.929Z,8.93
2023-04-29T03:10:59.018Z,8.91
2023-04-29T03:13:32.036Z,8.89
2023-04-29T03:16:00.844Z,8.85
2023-04-29T03:18:35.130Z,8.84
2023-04-29T03:21:15.108Z,8.86
2023-04-29T03:23:49.125Z,8.84
2023-04-29T03:26:16.295Z,8.82
2023-04-29T03:28:50.101Z,8.82
2023-04-29T03:31:17.500Z,8.80
2023-04-29T03:33:52.741Z,8.68
2023-04-29T03:36:20.038Z,8.76
2023-04-29T03:38:53.065Z,8.65
2023-04-29T03:41:20.339Z,8.68
2023-04-29T03:43:54.120Z,8.71
2023-04-29T03:46:28.130Z,8.76
2023-04-29T03:48:57.968Z,8.66
2023-04-29T03:51:32.176Z,8.61
2023-04-29T03:53:59.511Z,8.77
2023-04-29T03:56:33.125Z,8.70
2023-04-29T03:59:00.173Z,8.69
2023-04-29T04:01:36.989Z,8.74
2023-04-29T04:04:04.323Z,8.73
2023-04-29T04:06:39.040Z,8.70
2023-04-29T04:09:05.910Z,8.75
2023-04-29T04:11:39.048Z,8.74
2023-04-29T04:14:06.105Z,8.73
2023-04-29T04:16:39.102Z,8.64
2023-04-29T04:19:14.047Z,8.66
2023-04-29T04:21:48.019Z,8.67
2023-04-29T04:24:21.115Z,8.72
2023-04-29T04:26:47.986Z,8.71
2023-04-29T04:29:21.132Z,8.62
2023-04-29T04:31:48.369Z,8.71
2023-04-29T04:34:23.640Z,8.56
2023-04-29T04:36:50.512Z,8.65
2023-04-29T04:39:24.230Z,8.71
2023-04-29T04:41:51.326Z,8.65
2023-04-29T04:44:25.279Z,8.60
2023-04-29T04:46:52.673Z,8.57
2023-04-29T04:49:26.117Z,8.60
2023-04-29T04:51:53.423Z,8.68
2023-04-29T04:54:34.131Z,8.52
2023-04-29T04:57:07.066Z,8.65
2023-04-29T04:59:34.575Z,8.65
2023-04-29T05:02:08.154Z,8.52
2023-04-29T05:04:34.969Z,8.58
2023-04-29T05:07:08.090Z,8.61
2023-04-29T05:09:34.944Z,8.64
2023-04-29T05:12:08.068Z,8.66
2023-04-29T05:14:34.967Z,8.57
2023-04-29T05:17:08.081Z,8.59
2023-04-29T05:19:55.152Z,8.57
2023-04-29T05:22:29.115Z,8.64
2023-04-29T05:25:09.166Z,8.56
2023-04-29T05:27:35.940Z,8.58
2023-04-29T05:30:16.166Z,8.60
2023-04-29T05:32:49.207Z,8.62
2023-04-29T05:37:58.706Z,8.62
2023-04-29T05:40:36.426Z,8.57
2023-04-29T05:43:11.449Z,8.63
2023-04-29T05:45:47.430Z,8.58
2023-04-29T05:48:21.122Z,8.51
2023-04-29T05:50:55.320Z,8.64
2023-04-29T05:53:22.192Z,8.70
2023-04-29T05:55:57.133Z,8.66
2023-04-29T05:58:23.995Z,8.72
2023-04-29T06:00:58.667Z,8.73
2023-04-29T06:03:33.389Z,8.65
2023-04-29T06:06:07.171Z,8.68
2023-04-29T06:08:41.172Z,8.71
2023-04-29T06:11:08.291Z,8.66
2023-04-29T06:13:42.188Z,8.71
2023-04-29T06:16:09.197Z,8.70
2023-04-29T06:18:42.150Z,8.71
2023-04-29T06:21:16.513Z,8.75
2023-04-29T06:23:50.164Z,8.70
2023-04-29T06:26:17.148Z,8.71
2023-04-29T06:28:44.145Z,8.69
2023-04-29T06:31:17.233Z,8.66
2023-04-29T06:33:50.159Z,8.71
2023-04-29T06:36:24.151Z,8.77
2023-04-29T06:38:57.219Z,8.74
2023-04-29T06:41:30.109Z,8.74
2023-04-29T06:44:03.109Z,8.81
2023-04-29T06:46:30.602Z,8.87
2023-04-29T06:49:04.417Z,8.91
2023-04-29T06:51:39.151Z,8.93
2023-04-29T06:54:06.138Z,8.99
2023-04-29T06:56:39.113Z,9.02
2023-04-29T06:59:06.486Z,9.03
2023-04-29T07:01:51.564Z,9.02
2023-04-29T07:04:25.320Z,9.10
2023-04-29T07:07:14.075Z,9.12
2023-04-29T07:09:47.196Z,9.19
2023-04-29T07:12:20.213Z,9.28
2023-04-29T07:14:47.534Z,9.40
2023-04-29T07:17:21.216Z,9.40
2023-04-29T07:19:54.590Z,9.50
2023-04-29T07:22:35.178Z,9.51
2023-04-29T07:25:01.958Z,9.51
2023-04-29T07:27:36.175Z,9.56
2023-04-29T07:30:11.271Z,9.59
2023-04-29T07:32:44.161Z,9.63
2023-04-29T07:35:17.181Z,9.65
2023-04-29T07:37:51.247Z,9.71
2023-04-29T07:40:34.257Z,9.75
2023-04-29T07:43:05.109Z,9.79
2023-04-29T07:45:40.355Z,9.75
2023-04-29T07:48:07.610Z,9.81
2023-04-29T07:50:50.184Z,9.84
2023-04-29T07:53:18.153Z,9.93
2023-04-29T07:55:54.658Z,9.99
2023-04-29T07:58:22.096Z,10.06
2023-04-29T08:00:55.222Z,10.08
2023-04-29T08:03:22.229Z,10.17
2023-04-29T08:05:58.309Z,10.15
2023-04-29T08:08:25.426Z,10.30
2023-04-29T08:10:59.202Z,10.31
2023-04-29T08:13:33.124Z,10.42
2023-04-29T08:16:00.021Z,10.45
2023-04-29T08:18:33.484Z,10.44
2023-04-29T08:21:14.332Z,10.54
2023-04-29T08:23:48.181Z,10.63
2023-04-29T08:26:15.259Z,10.47
2023-04-29T08:28:49.526Z,10.61
2023-04-29T08:31:20.984Z,10.93
2023-04-29T08:33:55.584Z,11.02
2023-04-29T08:36:22.382Z,11.21
2023-04-29T08:38:59.230Z,11.35
2023-04-29T08:41:26.090Z,11.48
2023-04-29T08:43:59.276Z,11.44
2023-04-29T08:46:33.308Z,11.65
2023-04-29T08:49:04.535Z,11.80
2023-04-29T08:51:40.600Z,11.94
2023-04-29T08:54:15.225Z,11.90
2023-04-29T08:56:52.201Z,11.99
2023-04-29T08:59:27.196Z,12.15
2023-04-29T09:02:01.361Z,12.18
2023-04-29T09:04:47.729Z,12.22
2023-04-29T09:07:22.270Z,12.38
2023-04-29T09:09:49.942Z,12.39
2023-04-29T09:12:23.250Z,12.60
2023-04-29T09:14:50.317Z,12.52
2023-04-29T09:17:24.242Z,12.55
2023-04-29T09:20:11.218Z,12.66
2023-04-29T09:22:55.193Z,12.83
2023-04-29T09:25:22.517Z,13.00
2023-04-29T09:27:56.252Z,12.97
2023-04-29T09:30:29.426Z,13.09
2023-04-29T09:33:16.146Z,12.89
2023-04-29T09:35:49.200Z,12.94
2023-04-29T09:38:16.816Z,13.07
2023-04-29T09:40:59.698Z,13.20
2023-04-29T09:43:34.242Z,13.34
2023-04-29T09:46:08.291Z,13.80
2023-04-29T09:48:42.057Z,14.33
2023-04-29T09:51:16.200Z,14.82
2023-04-29T09:53:43.455Z,15.01
2023-04-29T09:56:17.201Z,15.00
2023-04-29T09:58:43.963Z,14.86
2023-04-29T10:03:56.295Z,14.49
2023-04-29T10:06:31.300Z,14.68
2023-04-29T10:08:58.503Z,14.88
2023-04-29T10:11:34.319Z,14.94
2023-04-29T10:14:02.523Z,14.79
2023-04-29T10:16:40.319Z,14.60
2023-04-29T10:19:13.060Z,14.21
2023-04-29T10:21:56.248Z,14.04
2023-04-29T10:24:30.337Z,13.90
2023-04-29T10:27:07.226Z,13.90
2023-04-29T10:29:37.310Z,13.92
2023-04-29T10:32:14.274Z,13.82
2023-04-29T10:34:43.145Z,13.71
2023-04-29T10:37:20.513Z,13.47
2023-04-29T10:40:01.692Z,13.59
2023-04-29T10:42:54.216Z,13.64
2023-04-29T10:45:27.316Z,14.12
2023-04-29T10:48:21.391Z,14.97
